sensor_id;sensor_type;location;lat;lon;timestamp;P1;durP1;ratioP1;P2;durP2;ratioP2
69744;SDS011;57015;50.120;-5.168;2023-12-28T00:01:43;41.80;;;6.53;;
69744;SDS011;57015;50.120;-5.168;2023-12-28T00:04:08;38.83;;;5.97;;
69744;SDS011;57015;50.120;-5.168;2023-12-28T00:06:35;38.53;;;4.32;;
69744;SDS011;57015;50.120;-5.168;2023-12-28T00:09:00;35.73;;;5.40;;
69744;SDS011;57015;50.120;-5.168;2023-12-28T00:11:26;36.57;;;5.20;;
69744;SDS011;57015;50.120;-5.168;2023-12-28T00:13:51;40.63;;;6.93;;
69744;SDS011;57015;50.120;-5.168;2023-12-28T00:16:16;39.53;;;6.17;;
69744;SDS011;57015;50.120;-5.168;2023-12-28T00:18:42;36.65;;;5.55;;
69744;SDS011;57015;50.120;-5.168;2023-12-28T00:21:07;35.85;;;5.43;;
69744;SDS011;57015;50.120;-5.168;2023-12-28T00:23:33;51.37;;;7.07;;
69744;SDS011;57015;50.120;-5.168;2023-12-28T00:25:58;35.40;;;6.60;;
69744;SDS011;57015;50.120;-5.168;2023-12-28T00:28:23;40.10;;;5.93;;
69744;SDS011;57015;50.120;-5.168;2023-12-28T00:30:49;39.10;;;5.90;;
69744;SDS011;57015;50.120;-5.168;2023-12-28T00:33:14;44.70;;;7.07;;
69744;SDS011;57015;50.120;-5.168;2023-12-28T00:35:39;33.60;;;4.80;;
69744;SDS011;57015;50.120;-5.168;2023-12-28T00:38:05;40.28;;;5.43;;
69744;SDS011;57015;50.120;-5.168;2023-12-28T00:40:30;40.10;;;5.37;;
69744;SDS011;57015;50.120;-5.168;2023-12-28T00:42:55;41.70;;;7.67;;
69744;SDS011;57015;50.120;-5.168;2023-12-28T00:45:21;42.37;;;6.27;;
69744;SDS011;57015;50.120;-5.168;2023-12-28T00:47:46;48.07;;;5.47;;
69744;SDS011;57015;50.120;-5.168;2023-12-28T00:50:12;48.50;;;6.57;;
69744;SDS011;57015;50.120;-5.168;2023-12-28T00:52:37;44.67;;;6.07;;
69744;SDS011;57015;50.120;-5.168;2023-12-28T00:55:03;34.63;;;5.13;;
69744;SDS011;57015;50.120;-5.168;2023-12-28T00:57:29;36.35;;;4.80;;
69744;SDS011;57015;50.120;-5.168;2023-12-28T00:59:55;34.50;;;5.37;;
69744;SDS011;57015;50.120;-5.168;2023-12-28T01:02:20;42.47;;;5.53;;
69744;SDS011;57015;50.120;-5.168;2023-12-28T01:04:46;32.40;;;4.60;;
69744;SDS011;57015;50.120;-5.168;2023-12-28T01:07:11;38.33;;;5.03;;
69744;SDS011;57015;50.120;-5.168;2023-12-28T01:09:36;35.97;;;4.90;;
69744;SDS011;57015;50.120;-5.168;2023-12-28T01:12:02;28.67;;;4.77;;
69744;SDS011;57015;50.120;-5.168;2023-12-28T01:14:27;25.43;;;4.30;;
69744;SDS011;57015;50.120;-5.168;2023-12-28T01:16:53;28.00;;;3.97;;
69744;SDS011;57015;50.120;-5.168;2023-12-28T01:19:18;40.13;;;4.70;;
69744;SDS011;57015;50.120;-5.168;2023-12-28T01:21:44;30.58;;;4.85;;
69744;SDS011;57015;50.120;-5.168;2023-12-28T01:24:09;26.87;;;3.30;;
69744;SDS011;57015;50.120;-5.168;2023-12-28T01:26:38;26.70;;;3.45;;
69744;SDS011;57015;50.120;-5.168;2023-12-28T01:29:03;34.47;;;4.70;;
69744;SDS011;57015;50.120;-5.168;2023-12-28T01:31:29;32.43;;;3.80;;
69744;SDS011;57015;50.120;-5.168;2023-12-28T01:33:54;31.98;;;3.70;;
69744;SDS011;57015;50.120;-5.168;2023-12-28T01:36:20;28.13;;;3.83;;
69744;SDS011;57015;50.120;-5.168;2023-12-28T01:38:46;30.40;;;4.03;;
69744;SDS011;57015;50.120;-5.168;2023-12-28T01:41:12;32.80;;;4.63;;
69744;SDS011;57015;50.120;-5.168;2023-12-28T01:43:38;32.22;;;4.60;;
69744;SDS011;57015;50.120;-5.168;2023-12-28T01:46:04;28.35;;;3.95;;
69744;SDS011;57015;50.120;-5.168;2023-12-28T01:48:31;31.50;;;4.27;;
69744;SDS011;57015;50.120;-5.168;2023-12-28T01:50:57;43.65;;;4.90;;
69744;SDS011;57015;50.120;-5.168;2023-12-28T01:53:23;33.75;;;5.43;;
69744;SDS011;57015;50.120;-5.168;2023-12-28T01:55:49;32.10;;;4.83;;
69744;SDS011;57015;50.120;-5.168;2023-12-28T01:58:14;48.43;;;6.20;;
69744;SDS011;57015;50.120;-5.168;2023-12-28T02:00:40;37.78;;;5.55;;
69744;SDS011;57015;50.120;-5.168;2023-12-28T02:03:07;40.60;;;6.78;;
69744;SDS011;57015;50.120;-5.168;2023-12-28T02:05:33;32.25;;;4.88;;
69744;SDS011;57015;50.120;-5.168;2023-12-28T02:07:59;37.17;;;5.83;;
69744;SDS011;57015;50.120;-5.168;2023-12-28T02:10:24;40.33;;;5.03;;
69744;SDS011;57015;50.120;-5.168;2023-12-28T02:12:49;35.88;;;5.63;;
69744;SDS011;57015;50.120;-5.168;2023-12-28T02:15:17;31.17;;;4.73;;
69744;SDS011;57015;50.120;-5.168;2023-12-28T02:20:13;37.63;;;5.70;;
69744;SDS011;57015;50.120;-5.168;2023-12-28T02:22:40;37.00;;;6.50;;
69744;SDS011;57015;50.120;-5.168;2023-12-28T02:25:09;43.97;;;5.78;;
69744;SDS011;57015;50.120;-5.168;2023-12-28T02:27:42;36.97;;;6.47;;
69744;SDS011;57015;50.120;-5.168;2023-12-28T02:30:12;39.08;;;5.63;;
69744;SDS011;57015;50.120;-5.168;2023-12-28T02:35:14;40.85;;;5.80;;
69744;SDS011;57015;50.120;-5.168;2023-12-28T02:37:40;39.83;;;5.47;;
69744;SDS011;57015;50.120;-5.168;2023-12-28T02:40:07;38.03;;;5.43;;
69744;SDS011;57015;50.120;-5.168;2023-12-28T02:42:34;37.58;;;5.90;;
69744;SDS011;57015;50.120;-5.168;2023-12-28T02:44:59;43.73;;;7.00;;
69744;SDS011;57015;50.120;-5.168;2023-12-28T02:47:25;52.47;;;7.30;;
69744;SDS011;57015;50.120;-5.168;2023-12-28T02:49:50;34.50;;;7.13;;
69744;SDS011;57015;50.120;-5.168;2023-12-28T02:52:15;46.83;;;6.90;;
69744;SDS011;57015;50.120;-5.168;2023-12-28T02:54:41;41.50;;;5.90;;
69744;SDS011;57015;50.120;-5.168;2023-12-28T02:57:06;45.80;;;6.43;;
69744;SDS011;57015;50.120;-5.168;2023-12-28T02:59:31;41.13;;;6.43;;
69744;SDS011;57015;50.120;-5.168;2023-12-28T03:01:57;36.33;;;4.93;;
69744;SDS011;57015;50.120;-5.168;2023-12-28T03:04:22;47.25;;;6.35;;
69744;SDS011;57015;50.120;-5.168;2023-12-28T03:06:47;42.28;;;6.72;;
69744;SDS011;57015;50.120;-5.168;2023-12-28T03:09:13;40.53;;;5.87;;
69744;SDS011;57015;50.120;-5.168;2023-12-28T03:11:38;42.73;;;6.10;;
69744;SDS011;57015;50.120;-5.168;2023-12-28T03:14:03;40.53;;;6.03;;
69744;SDS011;57015;50.120;-5.168;2023-12-28T03:16:29;39.77;;;4.93;;
69744;SDS011;57015;50.120;-5.168;2023-12-28T03:18:54;33.17;;;5.83;;
69744;SDS011;57015;50.120;-5.168;2023-12-28T03:21:19;37.47;;;5.53;;
69744;SDS011;57015;50.120;-5.168;2023-12-28T03:23:45;38.60;;;5.70;;
69744;SDS011;57015;50.120;-5.168;2023-12-28T03:26:10;36.92;;;5.95;;
69744;SDS011;57015;50.120;-5.168;2023-12-28T03:28:35;36.20;;;5.10;;
69744;SDS011;57015;50.120;-5.168;2023-12-28T03:31:01;33.57;;;4.83;;
69744;SDS011;57015;50.120;-5.168;2023-12-28T03:33:28;35.15;;;5.75;;
69744;SDS011;57015;50.120;-5.168;2023-12-28T03:35:53;37.63;;;5.90;;
69744;SDS011;57015;50.120;-5.168;2023-12-28T03:38:19;38.80;;;6.80;;
69744;SDS011;57015;50.120;-5.168;2023-12-28T03:40:44;36.33;;;5.45;;
69744;SDS011;57015;50.120;-5.168;2023-12-28T03:43:12;46.17;;;4.73;;
69744;SDS011;57015;50.120;-5.168;2023-12-28T03:45:38;33.28;;;5.03;;
69744;SDS011;57015;50.120;-5.168;2023-12-28T03:48:03;39.33;;;5.57;;
69744;SDS011;57015;50.120;-5.168;2023-12-28T03:50:29;34.23;;;5.93;;
69744;SDS011;57015;50.120;-5.168;2023-12-28T03:52:54;37.53;;;7.00;;
69744;SDS011;57015;50.120;-5.168;2023-12-28T03:55:20;41.95;;;5.68;;
69744;SDS011;57015;50.120;-5.168;2023-12-28T03:57:46;38.03;;;5.50;;
69744;SDS011;57015;50.120;-5.168;2023-12-28T04:00:12;37.83;;;5.13;;
69744;SDS011;57015;50.120;-5.168;2023-12-28T04:02:39;32.72;;;5.00;;
69744;SDS011;57015;50.120;-5.168;2023-12-28T04:05:05;37.83;;;4.77;;
69744;SDS011;57015;50.120;-5.168;2023-12-28T04:07:32;43.17;;;7.18;;
69744;SDS011;57015;50.120;-5.168;2023-12-28T04:09:57;44.40;;;4.87;;
69744;SDS011;57015;50.120;-5.168;2023-12-28T04:12:23;35.05;;;4.97;;
69744;SDS011;57015;50.120;-5.168;2023-12-28T04:14:49;33.60;;;5.23;;
69744;SDS011;57015;50.120;-5.168;2023-12-28T04:17:14;36.67;;;5.20;;
69744;SDS011;57015;50.120;-5.168;2023-12-28T04:19:39;31.63;;;4.63;;
69744;SDS011;57015;50.120;-5.168;2023-12-28T04:22:05;31.73;;;4.73;;
69744;SDS011;57015;50.120;-5.168;2023-12-28T04:24:30;32.77;;;4.43;;
69744;SDS011;57015;50.120;-5.168;2023-12-28T04:26:55;43.60;;;5.88;;
69744;SDS011;57015;50.120;-5.168;2023-12-28T04:29:21;40.55;;;5.28;;
69744;SDS011;57015;50.120;-5.168;2023-12-28T04:31:46;45.57;;;5.03;;
69744;SDS011;57015;50.120;-5.168;2023-12-28T04:34:11;29.73;;;5.03;;
69744;SDS011;57015;50.120;-5.168;2023-12-28T04:36:43;47.13;;;5.97;;
69744;SDS011;57015;50.120;-5.168;2023-12-28T04:39:09;44.40;;;4.85;;
69744;SDS011;57015;50.120;-5.168;2023-12-28T04:41:35;35.10;;;4.87;;
69744;SDS011;57015;50.120;-5.168;2023-12-28T04:44:00;34.45;;;4.78;;
69744;SDS011;57015;50.120;-5.168;2023-12-28T04:46:26;33.58;;;5.47;;
69744;SDS011;57015;50.120;-5.168;2023-12-28T04:48:51;33.57;;;5.53;;
69744;SDS011;57015;50.120;-5.168;2023-12-28T04:51:16;34.13;;;5.90;;
69744;SDS011;57015;50.120;-5.168;2023-12-28T04:53:42;38.80;;;5.70;;
69744;SDS011;57015;50.120;-5.168;2023-12-28T04:56:07;38.03;;;4.47;;
69744;SDS011;57015;50.120;-5.168;2023-12-28T04:58:32;30.83;;;4.27;;
69744;SDS011;57015;50.120;-5.168;2023-12-28T05:00:58;34.87;;;4.00;;
69744;SDS011;57015;50.120;-5.168;2023-12-28T05:03:23;27.53;;;4.40;;
69744;SDS011;57015;50.120;-5.168;2023-12-28T05:05:48;27.67;;;3.58;;
69744;SDS011;57015;50.120;-5.168;2023-12-28T05:08:14;36.45;;;5.65;;
69744;SDS011;57015;50.120;-5.168;2023-12-28T05:10:39;30.40;;;4.20;;
69744;SDS011;57015;50.120;-5.168;2023-12-28T05:13:05;37.57;;;5.27;;
69744;SDS011;57015;50.120;-5.168;2023-12-28T05:15:30;28.47;;;3.50;;
69744;SDS011;57015;50.120;-5.168;2023-12-28T05:17:55;33.17;;;4.37;;
69744;SDS011;57015;50.120;-5.168;2023-12-28T05:20:21;22.37;;;4.17;;
69744;SDS011;57015;50.120;-5.168;2023-12-28T05:22:46;27.10;;;3.97;;
69744;SDS011;57015;50.120;-5.168;2023-12-28T05:25:12;29.30;;;4.17;;
69744;SDS011;57015;50.120;-5.168;2023-12-28T05:27:37;34.27;;;4.43;;
69744;SDS011;57015;50.120;-5.168;2023-12-28T05:30:03;29.63;;;4.80;;
69744;SDS011;57015;50.120;-5.168;2023-12-28T05:32:29;28.30;;;5.22;;
69744;SDS011;57015;50.120;-5.168;2023-12-28T05:34:55;33.13;;;5.73;;
69744;SDS011;57015;50.120;-5.168;2023-12-28T05:37:20;33.60;;;5.07;;
69744;SDS011;57015;50.120;-5.168;2023-12-28T05:39:45;32.13;;;5.63;;
69744;SDS011;57015;50.120;-5.168;2023-12-28T05:42:11;33.83;;;4.82;;
69744;SDS011;57015;50.120;-5.168;2023-12-28T05:44:36;34.80;;;6.67;;
69744;SDS011;57015;50.120;-5.168;2023-12-28T05:47:02;34.97;;;4.80;;
69744;SDS011;57015;50.120;-5.168;2023-12-28T05:49:28;31.08;;;4.25;;
69744;SDS011;57015;50.120;-5.168;2023-12-28T05:51:55;36.97;;;4.32;;
69744;SDS011;57015;50.120;-5.168;2023-12-28T05:54:21;36.30;;;4.60;;
69744;SDS011;57015;50.120;-5.168;2023-12-28T05:56:46;37.87;;;5.80;;
69744;SDS011;57015;50.120;-5.168;2023-12-28T05:59:11;29.33;;;4.03;;
69744;SDS011;57015;50.120;-5.168;2023-12-28T06:01:43;29.90;;;4.40;;
69744;SDS011;57015;50.120;-5.168;2023-12-28T06:04:09;33.33;;;5.93;;
69744;SDS011;57015;50.120;-5.168;2023-12-28T06:06:34;29.50;;;3.80;;
69744;SDS011;57015;50.120;-5.168;2023-12-28T06:09:01;36.97;;;4.70;;
69744;SDS011;57015;50.120;-5.168;2023-12-28T06:11:28;30.13;;;4.07;;
69744;SDS011;57015;50.120;-5.168;2023-12-28T06:13:53;35.35;;;4.28;;
69744;SDS011;57015;50.120;-5.168;2023-12-28T06:16:19;34.70;;;4.53;;
69744;SDS011;57015;50.120;-5.168;2023-12-28T06:18:44;40.23;;;6.17;;
69744;SDS011;57015;50.120;-5.168;2023-12-28T06:21:09;37.67;;;4.23;;
69744;SDS011;57015;50.120;-5.168;2023-12-28T06:23:35;28.67;;;3.43;;
69744;SDS011;57015;50.120;-5.168;2023-12-28T06:26:04;37.10;;;5.57;;
69744;SDS011;57015;50.120;-5.168;2023-12-28T06:28:30;31.20;;;3.95;;
69744;SDS011;57015;50.120;-5.168;2023-12-28T06:30:57;33.10;;;5.57;;
69744;SDS011;57015;50.120;-5.168;2023-12-28T06:33:25;36.70;;;4.93;;
69744;SDS011;57015;50.120;-5.168;2023-12-28T06:35:51;30.27;;;4.23;;
69744;SDS011;57015;50.120;-5.168;2023-12-28T06:38:18;29.48;;;3.50;;
69744;SDS011;57015;50.120;-5.168;2023-12-28T06:40:43;38.60;;;4.20;;
69744;SDS011;57015;50.120;-5.168;2023-12-28T06:43:08;34.97;;;4.43;;
69744;SDS011;57015;50.120;-5.168;2023-12-28T06:45:34;23.50;;;3.23;;
69744;SDS011;57015;50.120;-5.168;2023-12-28T06:47:59;34.20;;;4.63;;
69744;SDS011;57015;50.120;-5.168;2023-12-28T06:50:24;29.33;;;4.00;;
69744;SDS011;57015;50.120;-5.168;2023-12-28T06:52:50;22.20;;;3.05;;
69744;SDS011;57015;50.120;-5.168;2023-12-28T06:55:15;29.47;;;3.97;;
69744;SDS011;57015;50.120;-5.168;2023-12-28T06:57:40;27.27;;;3.17;;
69744;SDS011;57015;50.120;-5.168;2023-12-28T07:00:06;25.67;;;2.87;;
69744;SDS011;57015;50.120;-5.168;2023-12-28T07:02:32;36.42;;;4.30;;
69744;SDS011;57015;50.120;-5.168;2023-12-28T07:04:57;32.73;;;5.27;;
69744;SDS011;57015;50.120;-5.168;2023-12-28T07:07:22;33.83;;;4.23;;
69744;SDS011;57015;50.120;-5.168;2023-12-28T07:09:48;30.67;;;4.00;;
69744;SDS011;57015;50.120;-5.168;2023-12-28T07:12:14;26.73;;;4.13;;
69744;SDS011;57015;50.120;-5.168;2023-12-28T07:14:40;37.07;;;4.77;;
69744;SDS011;57015;50.120;-5.168;2023-12-28T07:17:05;32.83;;;4.47;;
69744;SDS011;57015;50.120;-5.168;2023-12-28T07:19:31;36.92;;;4.40;;
69744;SDS011;57015;50.120;-5.168;2023-12-28T07:21:56;32.97;;;4.10;;
69744;SDS011;57015;50.120;-5.168;2023-12-28T07:24:22;31.83;;;4.57;;
69744;SDS011;57015;50.120;-5.168;2023-12-28T07:26:48;30.07;;;3.93;;
69744;SDS011;57015;50.120;-5.168;2023-12-28T07:29:13;35.57;;;4.67;;
69744;SDS011;57015;50.120;-5.168;2023-12-28T07:31:38;24.50;;;3.93;;
69744;SDS011;57015;50.120;-5.168;2023-12-28T07:34:04;29.73;;;5.13;;
69744;SDS011;57015;50.120;-5.168;2023-12-28T07:36:30;32.72;;;4.50;;
69744;SDS011;57015;50.120;-5.168;2023-12-28T07:38:56;37.50;;;4.40;;
69744;SDS011;57015;50.120;-5.168;2023-12-28T07:41:21;38.03;;;4.97;;
69744;SDS011;57015;50.120;-5.168;2023-12-28T07:43:46;24.23;;;3.97;;
69744;SDS011;57015;50.120;-5.168;2023-12-28T07:46:12;31.40;;;4.40;;
69744;SDS011;57015;50.120;-5.168;2023-12-28T07:48:37;34.25;;;4.28;;
69744;SDS011;57015;50.120;-5.168;2023-12-28T07:51:06;32.53;;;3.75;;
69744;SDS011;57015;50.120;-5.168;2023-12-28T07:53:32;34.83;;;4.60;;
69744;SDS011;57015;50.120;-5.168;2023-12-28T07:55:57;32.87;;;4.43;;
69744;SDS011;57015;50.120;-5.168;2023-12-28T07:58:23;34.60;;;4.80;;
69744;SDS011;57015;50.120;-5.168;2023-12-28T08:00:48;40.90;;;5.03;;
69744;SDS011;57015;50.120;-5.168;2023-12-28T08:03:14;33.80;;;4.25;;
69744;SDS011;57015;50.120;-5.168;2023-12-28T08:05:40;37.95;;;4.10;;
69744;SDS011;57015;50.120;-5.168;2023-12-28T08:08:06;45.07;;;4.77;;
69744;SDS011;57015;50.120;-5.168;2023-12-28T08:10:31;34.63;;;4.63;;
69744;SDS011;57015;50.120;-5.168;2023-12-28T08:12:57;43.97;;;6.05;;
69744;SDS011;57015;50.120;-5.168;2023-12-28T08:15:22;27.60;;;5.63;;
69744;SDS011;57015;50.120;-5.168;2023-12-28T08:17:47;38.43;;;4.83;;
69744;SDS011;57015;50.120;-5.168;2023-12-28T08:20:13;38.43;;;4.97;;
69744;SDS011;57015;50.120;-5.168;2023-12-28T08:22:38;34.77;;;5.33;;
69744;SDS011;57015;50.120;-5.168;2023-12-28T08:25:04;30.97;;;4.37;;
69744;SDS011;57015;50.120;-5.168;2023-12-28T08:27:29;34.22;;;4.65;;
69744;SDS011;57015;50.120;-5.168;2023-12-28T08:29:55;24.37;;;4.50;;
69744;SDS011;57015;50.120;-5.168;2023-12-28T08:32:20;31.60;;;3.93;;
69744;SDS011;57015;50.120;-5.168;2023-12-28T08:34:45;31.23;;;4.80;;
69744;SDS011;57015;50.120;-5.168;2023-12-28T08:37:12;39.35;;;4.38;;
69744;SDS011;57015;50.120;-5.168;2023-12-28T08:39:39;32.00;;;4.67;;
69744;SDS011;57015;50.120;-5.168;2023-12-28T08:42:04;25.55;;;3.60;;
69744;SDS011;57015;50.120;-5.168;2023-12-28T08:44:30;31.70;;;4.23;;
69744;SDS011;57015;50.120;-5.168;2023-12-28T08:46:55;30.53;;;3.70;;
69744;SDS011;57015;50.120;-5.168;2023-12-28T08:49:21;31.67;;;4.13;;
69744;SDS011;57015;50.120;-5.168;2023-12-28T08:51:47;37.55;;;4.55;;
69744;SDS011;57015;50.120;-5.168;2023-12-28T08:54:12;26.27;;;4.47;;
69744;SDS011;57015;50.120;-5.168;2023-12-28T08:56:38;36.28;;;5.10;;
69744;SDS011;57015;50.120;-5.168;2023-12-28T08:59:04;35.03;;;5.10;;
69744;SDS011;57015;50.120;-5.168;2023-12-28T09:01:30;27.77;;;4.45;;
69744;SDS011;57015;50.120;-5.168;2023-12-28T09:03:55;30.10;;;4.30;;
69744;SDS011;57015;50.120;-5.168;2023-12-28T09:06:20;32.43;;;4.07;;
69744;SDS011;57015;50.120;-5.168;2023-12-28T09:08:50;35.35;;;4.63;;
69744;SDS011;57015;50.120;-5.168;2023-12-28T09:11:17;31.35;;;4.13;;
69744;SDS011;57015;50.120;-5.168;2023-12-28T09:13:43;25.33;;;4.07;;
69744;SDS011;57015;50.120;-5.168;2023-12-28T09:16:10;29.50;;;4.13;;
69744;SDS011;57015;50.120;-5.168;2023-12-28T09:18:36;29.57;;;4.43;;
69744;SDS011;57015;50.120;-5.168;2023-12-28T09:21:03;31.35;;;4.35;;
69744;SDS011;57015;50.120;-5.168;2023-12-28T09:23:29;28.35;;;3.72;;
69744;SDS011;57015;50.120;-5.168;2023-12-28T09:25:56;23.65;;;3.03;;
69744;SDS011;57015;50.120;-5.168;2023-12-28T09:28:22;38.80;;;5.32;;
69744;SDS011;57015;50.120;-5.168;2023-12-28T09:30:48;31.10;;;3.67;;
69744;SDS011;57015;50.120;-5.168;2023-12-28T09:33:14;31.42;;;3.38;;
69744;SDS011;57015;50.120;-5.168;2023-12-28T09:35:41;21.25;;;3.22;;
69744;SDS011;57015;50.120;-5.168;2023-12-28T09:38:06;26.33;;;3.33;;
69744;SDS011;57015;50.120;-5.168;2023-12-28T09:40:32;25.03;;;3.93;;
69744;SDS011;57015;50.120;-5.168;2023-12-28T09:43:07;29.97;;;3.13;;
69744;SDS011;57015;50.120;-5.168;2023-12-28T09:45:38;34.42;;;3.42;;
69744;SDS011;57015;50.120;-5.168;2023-12-28T09:48:03;28.23;;;3.77;;
69744;SDS011;57015;50.120;-5.168;2023-12-28T09:50:29;27.38;;;3.58;;
69744;SDS011;57015;50.120;-5.168;2023-12-28T09:52:55;22.57;;;2.73;;
69744;SDS011;57015;50.120;-5.168;2023-12-28T09:55:20;35.47;;;4.93;;
69744;SDS011;57015;50.120;-5.168;2023-12-28T09:57:46;31.07;;;4.60;;
69744;SDS011;57015;50.120;-5.168;2023-12-28T10:00:11;29.35;;;3.72;;
69744;SDS011;57015;50.120;-5.168;2023-12-28T10:02:38;31.35;;;4.25;;
69744;SDS011;57015;50.120;-5.168;2023-12-28T10:05:06;26.13;;;3.70;;
69744;SDS011;57015;50.120;-5.168;2023-12-28T10:07:32;31.88;;;3.95;;
69744;SDS011;57015;50.120;-5.168;2023-12-28T10:09:57;29.67;;;4.13;;
69744;SDS011;57015;50.120;-5.168;2023-12-28T10:12:22;29.58;;;4.35;;
69744;SDS011;57015;50.120;-5.168;2023-12-28T10:14:50;26.27;;;4.32;;
69744;SDS011;57015;50.120;-5.168;2023-12-28T10:17:15;28.42;;;3.10;;
69744;SDS011;57015;50.120;-5.168;2023-12-28T10:19:41;30.23;;;3.87;;
69744;SDS011;57015;50.120;-5.168;2023-12-28T10:22:06;26.73;;;3.70;;
69744;SDS011;57015;50.120;-5.168;2023-12-28T10:24:32;25.70;;;3.90;;
69744;SDS011;57015;50.120;-5.168;2023-12-28T10:26:57;27.90;;;3.37;;
69744;SDS011;57015;50.120;-5.168;2023-12-28T10:29:25;27.70;;;3.90;;
69744;SDS011;57015;50.120;-5.168;2023-12-28T10:31:51;35.97;;;4.65;;
69744;SDS011;57015;50.120;-5.168;2023-12-28T10:34:16;21.73;;;3.73;;
69744;SDS011;57015;50.120;-5.168;2023-12-28T10:36:43;21.40;;;3.45;;
69744;SDS011;57015;50.120;-5.168;2023-12-28T10:39:09;27.73;;;4.43;;
69744;SDS011;57015;50.120;-5.168;2023-12-28T10:41:38;28.75;;;4.45;;
69744;SDS011;57015;50.120;-5.168;2023-12-28T10:44:06;25.67;;;3.72;;
69744;SDS011;57015;50.120;-5.168;2023-12-28T10:46:33;31.27;;;5.22;;
69744;SDS011;57015;50.120;-5.168;2023-12-28T10:49:11;28.38;;;3.63;;
69744;SDS011;57015;50.120;-5.168;2023-12-28T10:51:41;32.23;;;3.63;;
69744;SDS011;57015;50.120;-5.168;2023-12-28T10:59:59;24.23;;;3.47;;
69744;SDS011;57015;50.120;-5.168;2023-12-28T11:02:39;29.08;;;4.20;;
69744;SDS011;57015;50.120;-5.168;2023-12-28T11:05:07;24.20;;;4.23;;
69744;SDS011;57015;50.120;-5.168;2023-12-28T11:07:32;29.52;;;4.30;;
69744;SDS011;57015;50.120;-5.168;2023-12-28T11:10:01;26.80;;;3.53;;
69744;SDS011;57015;50.120;-5.168;2023-12-28T11:12:29;27.90;;;4.90;;
69744;SDS011;57015;50.120;-5.168;2023-12-28T11:14:56;35.55;;;4.82;;
69744;SDS011;57015;50.120;-5.168;2023-12-28T11:17:22;25.38;;;3.28;;
69744;SDS011;57015;50.120;-5.168;2023-12-28T11:19:49;25.10;;;2.80;;
69744;SDS011;57015;50.120;-5.168;2023-12-28T11:22:15;22.35;;;3.40;;
69744;SDS011;57015;50.120;-5.168;2023-12-28T11:24:41;30.15;;;3.50;;
69744;SDS011;57015;50.120;-5.168;2023-12-28T11:27:06;28.13;;;3.97;;
69744;SDS011;57015;50.120;-5.168;2023-12-28T11:29:33;25.97;;;4.37;;
69744;SDS011;57015;50.120;-5.168;2023-12-28T11:31:59;21.58;;;3.70;;
69744;SDS011;57015;50.120;-5.168;2023-12-28T11:34:25;22.57;;;3.60;;
69744;SDS011;57015;50.120;-5.168;2023-12-28T11:36:53;28.83;;;3.92;;
69744;SDS011;57015;50.120;-5.168;2023-12-28T11:39:26;23.23;;;3.30;;
69744;SDS011;57015;50.120;-5.168;2023-12-28T11:42:18;26.40;;;4.20;;
69744;SDS011;57015;50.120;-5.168;2023-12-28T11:44:44;31.45;;;4.47;;
69744;SDS011;57015;50.120;-5.168;2023-12-28T11:47:13;25.97;;;3.17;;
69744;SDS011;57015;50.120;-5.168;2023-12-28T11:49:39;28.92;;;3.42;;
69744;SDS011;57015;50.120;-5.168;2023-12-28T11:52:11;26.00;;;3.10;;
69744;SDS011;57015;50.120;-5.168;2023-12-28T11:54:48;22.27;;;3.05;;
69744;SDS011;57015;50.120;-5.168;2023-12-28T11:57:15;27.00;;;3.25;;
69744;SDS011;57015;50.120;-5.168;2023-12-28T11:59:40;27.60;;;3.75;;
69744;SDS011;57015;50.120;-5.168;2023-12-28T12:02:06;31.53;;;4.43;;
69744;SDS011;57015;50.120;-5.168;2023-12-28T12:04:33;33.42;;;3.58;;
69744;SDS011;57015;50.120;-5.168;2023-12-28T12:07:01;32.20;;;4.33;;
69744;SDS011;57015;50.120;-5.168;2023-12-28T12:09:28;25.60;;;3.00;;
69744;SDS011;57015;50.120;-5.168;2023-12-28T12:11:53;24.93;;;3.87;;
69744;SDS011;57015;50.120;-5.168;2023-12-28T12:14:18;22.65;;;3.60;;
69744;SDS011;57015;50.120;-5.168;2023-12-28T12:16:44;24.03;;;2.67;;
69744;SDS011;57015;50.120;-5.168;2023-12-28T12:19:10;30.15;;;3.95;;
69744;SDS011;57015;50.120;-5.168;2023-12-28T12:21:35;33.20;;;4.50;;
69744;SDS011;57015;50.120;-5.168;2023-12-28T12:24:01;30.63;;;3.63;;
69744;SDS011;57015;50.120;-5.168;2023-12-28T12:26:26;31.40;;;4.53;;
69744;SDS011;57015;50.120;-5.168;2023-12-28T12:28:52;30.77;;;3.97;;
69744;SDS011;57015;50.120;-5.168;2023-12-28T12:31:18;22.07;;;3.73;;
69744;SDS011;57015;50.120;-5.168;2023-12-28T12:33:43;31.73;;;3.20;;
69744;SDS011;57015;50.120;-5.168;2023-12-28T12:36:09;36.30;;;3.38;;
69744;SDS011;57015;50.120;-5.168;2023-12-28T12:38:34;33.07;;;4.40;;
69744;SDS011;57015;50.120;-5.168;2023-12-28T12:41:00;25.40;;;3.10;;
69744;SDS011;57015;50.120;-5.168;2023-12-28T12:43:26;28.77;;;3.70;;
69744;SDS011;57015;50.120;-5.168;2023-12-28T12:45:52;23.97;;;2.80;;
69744;SDS011;57015;50.120;-5.168;2023-12-28T12:48:18;24.50;;;3.53;;
69744;SDS011;57015;50.120;-5.168;2023-12-28T12:50:43;24.70;;;3.13;;
69744;SDS011;57015;50.120;-5.168;2023-12-28T12:53:09;28.60;;;4.18;;
69744;SDS011;57015;50.120;-5.168;2023-12-28T12:55:36;31.10;;;3.88;;
69744;SDS011;57015;50.120;-5.168;2023-12-28T12:58:04;29.17;;;3.85;;
69744;SDS011;57015;50.120;-5.168;2023-12-28T13:00:30;29.83;;;3.47;;
69744;SDS011;57015;50.120;-5.168;2023-12-28T13:02:55;29.10;;;3.55;;
69744;SDS011;57015;50.120;-5.168;2023-12-28T13:05:24;30.13;;;4.20;;
69744;SDS011;57015;50.120;-5.168;2023-12-28T13:07:50;36.72;;;4.88;;
69744;SDS011;57015;50.120;-5.168;2023-12-28T13:10:16;36.07;;;4.83;;
69744;SDS011;57015;50.120;-5.168;2023-12-28T13:12:41;29.13;;;3.87;;
69744;SDS011;57015;50.120;-5.168;2023-12-28T13:15:07;27.55;;;4.10;;
69744;SDS011;57015;50.120;-5.168;2023-12-28T13:17:34;32.03;;;5.10;;
69744;SDS011;57015;50.120;-5.168;2023-12-28T13:20:01;31.55;;;4.80;;
69744;SDS011;57015;50.120;-5.168;2023-12-28T13:22:26;29.67;;;3.37;;
69744;SDS011;57015;50.120;-5.168;2023-12-28T13:24:51;20.85;;;3.50;;
69744;SDS011;57015;50.120;-5.168;2023-12-28T13:27:17;20.88;;;3.92;;
69744;SDS011;57015;50.120;-5.168;2023-12-28T13:29:42;26.73;;;2.80;;
69744;SDS011;57015;50.120;-5.168;2023-12-28T13:32:08;25.57;;;3.33;;
69744;SDS011;57015;50.120;-5.168;2023-12-28T13:34:34;26.38;;;3.40;;
69744;SDS011;57015;50.120;-5.168;2023-12-28T13:36:59;30.27;;;3.67;;
69744;SDS011;57015;50.120;-5.168;2023-12-28T13:39:26;25.17;;;3.63;;
69744;SDS011;57015;50.120;-5.168;2023-12-28T13:41:53;25.05;;;3.33;;
69744;SDS011;57015;50.120;-5.168;2023-12-28T13:44:19;28.75;;;3.78;;
69744;SDS011;57015;50.120;-5.168;2023-12-28T13:46:44;20.03;;;3.53;;
69744;SDS011;57015;50.120;-5.168;2023-12-28T13:49:10;31.40;;;3.73;;
69744;SDS011;57015;50.120;-5.168;2023-12-28T13:51:35;23.50;;;3.40;;
69744;SDS011;57015;50.120;-5.168;2023-12-28T13:54:00;35.37;;;4.70;;
69744;SDS011;57015;50.120;-5.168;2023-12-28T13:56:26;19.00;;;4.30;;
69744;SDS011;57015;50.120;-5.168;2023-12-28T13:58:51;24.45;;;4.10;;
69744;SDS011;57015;50.120;-5.168;2023-12-28T14:01:17;26.40;;;4.47;;
69744;SDS011;57015;50.120;-5.168;2023-12-28T14:03:43;29.43;;;3.07;;
69744;SDS011;57015;50.120;-5.168;2023-12-28T14:06:10;31.42;;;4.72;;
69744;SDS011;57015;50.120;-5.168;2023-12-28T14:08:36;27.08;;;3.88;;
69744;SDS011;57015;50.120;-5.168;2023-12-28T14:11:01;25.13;;;3.38;;
69744;SDS011;57015;50.120;-5.168;2023-12-28T14:13:27;22.97;;;2.90;;
69744;SDS011;57015;50.120;-5.168;2023-12-28T14:15:53;34.53;;;4.32;;
69744;SDS011;57015;50.120;-5.168;2023-12-28T14:18:19;26.90;;;3.40;;
69744;SDS011;57015;50.120;-5.168;2023-12-28T14:20:44;23.20;;;4.17;;
69744;SDS011;57015;50.120;-5.168;2023-12-28T14:23:09;29.35;;;4.28;;
69744;SDS011;57015;50.120;-5.168;2023-12-28T14:25:35;34.60;;;4.45;;